Time;durP1;ratioP1;P1;durP2;ratioP2;P2;SDS_P1;SDS_P2;PMS_P1;PMS_P2;Temp;Humidity;BMP_temperature;BMP_pressure;BME280_temperature;BME280_humidity;BME280_pressure;Samples;Min_cycle;Max_cycle;Signal;HPM_P1;HPM_P2
2022/07/17 00:00:49;;;;;;;13.20;9.83;;;;;;;22.25;99.87;100830.09;1768498;80;21071;-75
2022/07/17 00:03:18;;;;;;;11.97;9.75;;;;;;;22.23;99.92;100832.00;1770246;80;21135;-75
2022/07/17 00:05:46;;;;;;;11.20;9.53;;;;;;;22.10;100.00;100833.56;1756306;80;21027;-74
2022/07/17 00:08:15;;;;;;;13.95;9.73;;;;;;;22.21;100.00;100837.37;1754330;80;21073;-75
2022/07/17 00:10:43;;;;;;;11.53;9.63;;;;;;;22.24;100.00;100844.66;1763191;80;21572;-75
2022/07/17 00:13:11;;;;;;;13.13;9.85;;;;;;;22.20;100.00;100842.28;1759055;80;20995;-74
2022/07/17 00:15:39;;;;;;;14.15;9.78;;;;;;;22.14;100.00;100841.52;1766739;80;21507;-76
2022/07/17 00:18:08;;;;;;;12.90;9.55;;;;;;;22.14;100.00;100843.28;1767962;80;21042;-75
2022/07/17 00:20:36;;;;;;;16.82;10.20;;;;;;;22.13;99.84;100841.64;1767754;80;21007;-75
2022/07/17 00:23:04;;;;;;;10.43;9.33;;;;;;;22.11;99.84;100838.32;1759727;80;21044;-75
2022/07/17 00:25:32;;;;;;;12.75;9.85;;;;;;;22.03;100.00;100835.05;1774356;80;21031;-74
2022/07/17 00:27:59;;;;;;;12.50;10.40;;;;;;;22.05;100.00;100827.88;1766273;80;21008;-74
2022/07/17 00:30:27;;;;;;;15.28;10.18;;;;;;;21.93;100.00;100827.16;1769961;80;21531;-75
2022/07/17 00:32:55;;;;;;;14.93;10.03;;;;;;;22.08;100.00;100825.01;1763541;80;21033;-75
2022/07/17 00:35:24;;;;;;;13.45;9.25;;;;;;;22.12;100.00;100829.48;1773908;80;21083;-75
2022/07/17 00:37:52;;;;;;;13.13;9.45;;;;;;;21.99;99.98;100828.42;1770375;80;21056;-76
2022/07/17 00:40:22;;;;;;;15.10;9.80;;;;;;;21.94;100.00;100825.39;1762045;80;21090;-76
2022/07/17 00:42:50;;;;;;;14.47;9.70;;;;;;;21.94;99.65;100826.21;1769222;80;21892;-74
2022/07/17 00:45:18;;;;;;;13.78;9.83;;;;;;;21.84;99.93;100823.19;1766233;80;21016;-75
2022/07/17 00:48:02;;;;;;;14.05;9.70;;;;;;;21.78;99.50;100827.20;1771011;80;21569;-75
2022/07/17 00:50:36;;;;;;;19.05;10.70;;;;;;;21.71;100.00;100824.25;1736088;80;21031;-73
2022/07/17 00:53:05;;;;;;;13.58;9.45;;;;;;;22.28;99.24;100827.68;1764774;80;20987;-76
2022/07/17 00:55:32;;;;;;;11.70;9.73;;;;;;;22.74;93.73;100823.08;1750046;80;21150;-76
2022/07/17 00:58:04;;;;;;;17.37;10.25;;;;;;;21.78;97.67;100817.53;1763971;80;21024;-74
2022/07/17 01:00:31;;;;;;;13.43;10.32;;;;;;;21.63;99.44;100825.39;1753113;80;21062;-75
2022/07/17 01:02:59;;;;;;;12.90;9.40;;;;;;;21.75;98.86;100824.83;1754750;80;21011;-74
2022/07/17 01:05:26;;;;;;;14.33;9.48;;;;;;;21.61;99.51;100822.08;1760394;81;21052;-76
2022/07/17 01:07:53;;;;;;;12.37;9.35;;;;;;;21.55;99.77;100815.59;1760603;80;21515;-75
2022/07/17 01:10:23;;;;;;;13.28;9.73;;;;;;;21.60;99.63;100819.95;1779632;80;21198;-76
2022/07/17 01:12:49;;;;;;;14.80;10.03;;;;;;;21.50;99.88;100820.88;1756762;80;21026;-75
2022/07/17 01:15:16;;;;;;;14.33;9.63;;;;;;;21.53;99.93;100817.97;1767179;80;21035;-75
2022/07/17 01:17:44;;;;;;;14.60;9.73;;;;;;;21.72;99.08;100818.06;1766206;80;21087;-74
2022/07/17 01:20:13;;;;;;;14.98;9.30;;;;;;;21.73;99.11;100817.58;1768304;80;21109;-75
2022/07/17 01:22:43;;;;;;;14.25;9.83;;;;;;;21.68;99.34;100814.05;1774067;80;21023;-75
2022/07/17 01:25:10;;;;;;;13.90;9.43;;;;;;;21.58;99.37;100806.15;1769546;80;21105;-74
2022/07/17 01:27:40;;;;;;;13.03;9.18;;;;;;;21.60;99.13;100808.64;1770631;80;21602;-75
2022/07/17 01:30:09;;;;;;;12.43;9.40;;;;;;;21.46;99.55;100808.52;1761676;80;21486;-75
2022/07/17 01:32:40;;;;;;;12.98;8.78;;;;;;;21.37;100.00;100807.48;1772335;80;21051;-74
2022/07/17 01:35:13;;;;;;;10.63;8.35;;;;;;;21.33;100.00;100810.47;1780811;80;21039;-75
2022/07/17 01:37:41;;;;;;;10.38;7.78;;;;;;;21.43;100.00;100809.25;1752348;80;20995;-74
2022/07/17 01:40:12;;;;;;;11.20;8.45;;;;;;;21.35;100.00;100809.41;1748062;80;21306;-75
2022/07/17 01:42:46;;;;;;;11.78;8.10;;;;;;;21.41;100.00;100814.13;1762339;80;20992;-75
2022/07/17 01:45:16;;;;;;;12.25;8.63;;;;;;;21.44;100.00;100811.74;1763732;80;21083;-75
2022/07/17 01:47:44;;;;;;;10.13;7.95;;;;;;;21.26;100.00;100806.73;1779250;80;21550;-76
2022/07/17 01:50:13;;;;;;;12.88;8.38;;;;;;;21.40;99.96;100811.13;1764968;80;21036;-75
2022/07/17 01:52:44;;;;;;;11.60;9.00;;;;;;;21.43;99.67;100814.48;1761588;80;21023;-76
2022/07/17 01:55:14;;;;;;;15.05;9.30;;;;;;;21.34;99.60;100815.58;1765686;80;21055;-75
2022/07/17 01:57:42;;;;;;;11.95;9.40;;;;;;;21.01;100.00;100815.33;1766827;80;20992;-74
2022/07/17 02:00:16;;;;;;;12.25;9.68;;;;;;;20.95;100.00;100809.30;1762807;80;21575;-75
2022/07/17 02:02:45;;;;;;;14.43;9.40;;;;;;;20.90;100.00;100813.59;1770926;80;21122;-76
2022/07/17 02:05:13;;;;;;;11.30;8.98;;;;;;;20.77;100.00;100819.50;1767297;80;21534;-75
2022/07/17 02:07:40;;;;;;;13.93;9.53;;;;;;;20.76;100.00;100825.22;1755727;80;21038;-75
2022/07/17 02:10:13;;;;;;;12.65;9.60;;;;;;;20.96;100.00;100824.03;1753443;80;21043;-75
2022/07/17 02:12:41;;;;;;;13.13;9.45;;;;;;;20.89;100.00;100822.41;1765085;80;21494;-76
2022/07/17 02:15:09;;;;;;;16.97;9.25;;;;;;;20.89;100.00;100830.75;1776403;80;21090;-75
2022/07/17 02:17:40;;;;;;;11.45;9.53;;;;;;;20.87;100.00;100827.43;1778592;80;21051;-75
2022/07/17 02:20:10;;;;;;;13.18;9.78;;;;;;;22.18;94.82;100813.20;1755754;80;21114;-75
2022/07/17 02:22:38;;;;;;;16.15;9.98;;;;;;;22.22;92.15;100818.52;1760211;80;20992;-74
2022/07/17 02:25:09;;;;;;;12.45;9.68;;;;;;;22.01;91.86;100826.49;1764969;80;21055;-74
2022/07/17 02:27:39;;;;;;;13.93;10.10;;;;;;;21.81;94.35;100817.25;1767807;80;21047;-75
2022/07/17 02:30:14;;;;;;;11.68;9.10;;;;;;;21.58;95.47;100815.31;1764916;80;21067;-75
2022/07/17 02:32:42;;;;;;;11.40;9.35;;;;;;;21.79;94.07;100822.29;1768508;80;21032;-73
2022/07/17 02:35:11;;;;;;;11.30;8.98;;;;;;;21.89;93.18;100818.39;1752003;80;21031;-74
2022/07/17 02:37:39;;;;;;;14.03;9.08;;;;;;;21.85;93.50;100813.07;1754150;80;21047;-75
2022/07/17 02:40:10;;;;;;;13.80;9.03;;;;;;;22.50;90.90;100814.30;1765546;80;20988;-73
2022/07/17 02:42:39;;;;;;;15.50;9.08;;;;;;;22.88;88.28;100814.44;1763086;80;21030;-75
2022/07/17 02:45:09;;;;;;;13.70;9.78;;;;;;;23.06;86.65;100817.21;1764509;80;21129;-74
2022/07/17 02:47:37;;;;;;;14.70;10.13;;;;;;;22.79;87.77;100825.30;1772051;80;21031;-73
2022/07/17 02:50:09;;;;;;;14.65;9.28;;;;;;;22.93;87.31;100823.56;1764085;80;21095;-74
2022/07/17 02:52:37;;;;;;;15.05;9.58;;;;;;;22.84;86.95;100822.25;1776740;80;21078;-73
2022/07/17 02:55:07;;;;;;;14.00;9.85;;;;;;;22.68;87.66;100812.31;1768339;80;21022;-74
2022/07/17 02:57:34;;;;;;;12.43;9.55;;;;;;;22.60;87.88;100813.82;1765142;80;21063;-73
2022/07/17 03:00:04;;;;;;;13.22;9.70;;;;;;;22.68;87.75;100818.38;1759342;80;21471;-73
2022/07/17 03:02:33;;;;;;;14.93;10.15;;;;;;;22.71;88.33;100817.27;1766111;80;21146;-74
2022/07/17 03:05:00;;;;;;;13.65;10.80;;;;;;;22.76;87.90;100810.64;1785368;80;21027;-74
2022/07/17 03:07:27;;;;;;;13.60;9.80;;;;;;;22.77;88.59;100812.80;1780959;80;21031;-74
2022/07/17 03:09:55;;;;;;;13.60;9.80;;;;;;;22.88;88.20;100804.77;1773132;80;21609;-73
2022/07/17 03:12:22;;;;;;;13.53;10.20;;;;;;;22.93;88.71;100806.95;1776960;80;21545;-74
2022/07/17 03:14:49;;;;;;;14.23;9.88;;;;;;;23.02;88.30;100801.40;1761545;80;21039;-74
2022/07/17 03:17:16;;;;;;;15.10;9.83;;;;;;;22.98;89.62;100799.50;1782517;80;20992;-73
2022/07/17 03:19:44;;;;;;;18.12;10.43;;;;;;;23.13;89.78;100795.47;1760370;80;21062;-73
2022/07/17 03:22:11;;;;;;;14.83;10.43;;;;;;;22.84;90.30;100787.64;1762269;80;21074;-73
2022/07/17 03:24:38;;;;;;;15.58;10.38;;;;;;;23.32;90.32;100788.53;1765448;80;21028;-74
2022/07/17 03:27:05;;;;;;;16.67;10.35;;;;;;;23.32;90.13;100793.78;1748269;80;21050;-73
2022/07/17 03:29:32;;;;;;;13.13;9.35;;;;;;;23.74;89.42;100791.99;1766488;81;21055;-73
2022/07/17 03:32:00;;;;;;;11.83;8.98;;;;;;;23.69;87.85;100791.12;1760552;80;21016;-73
2022/07/17 03:34:27;;;;;;;11.20;9.18;;;;;;;23.26;91.80;100796.98;1754607;80;21068;-73
2022/07/17 03:36:54;;;;;;;12.15;8.95;;;;;;;23.24;91.61;100792.36;1762229;80;21572;-74
2022/07/17 03:39:23;;;;;;;12.37;8.80;;;;;;;23.28;92.29;100793.73;1764464;80;21015;-73
2022/07/17 03:41:51;;;;;;;10.55;8.98;;;;;;;23.23;93.28;100794.14;1765807;81;21044;-74
2022/07/17 03:44:20;;;;;;;13.80;9.08;;;;;;;23.40;92.48;100795.20;1763510;80;21045;-74
2022/07/17 03:46:47;;;;;;;15.35;9.03;;;;;;;23.49;93.44;100793.02;1761787;80;21023;-72
2022/07/17 03:49:14;;;;;;;11.28;8.60;;;;;;;23.57;92.79;100790.98;1764595;80;21042;-74
2022/07/17 03:51:42;;;;;;;13.08;8.90;;;;;;;23.61;92.56;100792.34;1778642;80;21047;-74
2022/07/17 03:54:09;;;;;;;16.42;8.45;;;;;;;23.74;92.19;100790.22;1748157;80;21075;-73
2022/07/17 03:56:38;;;;;;;12.10;8.75;;;;;;;24.02;91.25;100784.12;1759301;80;21554;-73
2022/07/17 03:59:05;;;;;;;11.78;8.10;;;;;;;23.99;91.52;100778.68;1780196;80;21070;-73
2022/07/17 04:01:33;;;;;;;12.10;8.08;;;;;;;24.08;91.81;100768.56;1757811;80;21036;-73
2022/07/17 04:04:00;;;;;;;9.63;7.45;;;;;;;24.22;91.67;100758.52;1768141;80;21554;-74
2022/07/17 04:06:28;;;;;;;10.03;6.37;;;;;;;24.33;90.62;100756.48;1762500;80;21175;-73
2022/07/17 04:08:56;;;;;;;7.75;6.15;;;;;;;24.52;89.61;100752.88;1774002;80;21513;-73
2022/07/17 04:11:24;;;;;;;6.75;5.72;;;;;;;24.96;88.13;100758.63;1761408;80;21095;-74
2022/07/17 04:13:51;;;;;;;9.50;6.33;;;;;;;25.26;85.71;100759.95;1765927;80;21032;-74
2022/07/17 04:16:19;;;;;;;7.12;6.00;;;;;;;25.68;83.76;100757.00;1761400;80;21055;-74
2022/07/17 04:18:46;;;;;;;8.78;5.97;;;;;;;26.02;82.89;100764.86;1754279;80;21079;-75
2022/07/17 04:21:14;;;;;;;7.37;5.70;;;;;;;26.21;81.79;100766.86;1767257;80;21090;-73
2022/07/17 04:23:41;;;;;;;10.50;5.87;;;;;;;26.28;80.15;100777.92;1748316;80;21055;-74
2022/07/17 04:26:08;;;;;;;9.53;5.80;;;;;;;26.39;79.50;100774.12;1762769;80;21543;-74
2022/07/17 04:28:36;;;;;;;6.95;5.70;;;;;;;26.39;79.10;100772.80;1769362;80;21087;-73
2022/07/17 04:31:03;;;;;;;6.05;5.30;;;;;;;26.42;78.66;100772.96;1749787;80;21022;-73
2022/07/17 04:33:31;;;;;;;8.20;5.10;;;;;;;26.50;77.43;100772.96;1765222;80;21094;-74
2022/07/17 04:35:58;;;;;;;8.80;5.50;;;;;;;26.54;76.48;100771.17;1770640;80;21542;-74
2022/07/17 04:38:26;;;;;;;5.83;5.17;;;;;;;26.61;76.65;100779.78;1772536;81;21063;-74
2022/07/17 04:40:54;;;;;;;7.67;5.10;;;;;;;26.75;76.28;100770.67;1768311;80;21028;-74
2022/07/17 04:43:21;;;;;;;6.75;4.60;;;;;;;26.83;74.51;100767.20;1766523;80;21546;-74
2022/07/17 04:45:49;;;;;;;6.55;4.22;;;;;;;27.03;73.71;100768.98;1765696;80;21563;-74
2022/07/17 04:48:17;;;;;;;5.78;4.28;;;;;;;27.16;72.88;100762.66;1756389;80;21499;-73
2022/07/17 04:50:44;;;;;;;4.72;4.33;;;;;;;27.57;70.97;100760.38;1765265;80;21546;-74
2022/07/17 04:53:12;;;;;;;5.90;4.65;;;;;;;27.57;70.34;100754.61;1769784;80;21040;-74
2022/07/17 04:55:39;;;;;;;8.23;4.55;;;;;;;27.75;70.21;100755.65;1756178;80;21590;-74
2022/07/17 04:58:06;;;;;;;7.85;4.42;;;;;;;27.75;69.75;100756.16;1762300;80;21042;-74
2022/07/17 05:00:34;;;;;;;4.92;4.00;;;;;;;27.91;68.36;100759.23;1763003;80;21045;-74
2022/07/17 05:03:01;;;;;;;5.53;3.60;;;;;;;28.08;65.29;100762.59;1767295;80;21192;-74
2022/07/17 05:05:32;;;;;;;6.75;3.80;;;;;;;28.33;65.26;100768.03;1773832;80;21023;-73
2022/07/17 05:07:59;;;;;;;5.12;4.00;;;;;;;28.40;63.87;100764.16;1756697;80;21066;-73
2022/07/17 05:10:26;;;;;;;6.62;3.87;;;;;;;28.53;64.93;100767.08;1775441;80;21106;-74
2022/07/17 05:12:54;;;;;;;4.78;3.87;;;;;;;28.65;64.68;100761.33;1758788;80;21474;-73
2022/07/17 05:15:22;;;;;;;6.92;3.70;;;;;;;28.85;64.69;100759.80;1771746;80;21598;-74
2022/07/17 05:17:49;;;;;;;6.17;3.75;;;;;;;28.99;62.40;100765.30;1762878;81;21064;-74
2022/07/17 05:20:17;;;;;;;5.33;3.67;;;;;;;29.29;63.01;100766.97;1766219;81;21028;-74
2022/07/17 05:22:46;;;;;;;5.65;3.85;;;;;;;29.65;61.25;100768.02;1761219;80;21006;-74
2022/07/17 05:25:14;;;;;;;4.30;3.60;;;;;;;29.91;61.01;100775.48;1780183;80;21527;-73
2022/07/17 05:27:41;;;;;;;3.98;3.58;;;;;;;29.94;61.17;100781.22;1780425;80;21051;-74
2022/07/17 05:30:09;;;;;;;4.20;3.47;;;;;;;29.96;61.52;100777.05;1768616;80;21119;-74
2022/07/17 05:32:37;;;;;;;5.40;3.65;;;;;;;30.17;59.91;100776.22;1745302;80;21015;-74
2022/07/17 05:35:06;;;;;;;3.77;3.47;;;;;;;29.95;60.35;100764.80;1768111;80;21031;-73
2022/07/17 05:37:34;;;;;;;4.60;3.37;;;;;;;30.06;60.52;100762.14;1762200;80;21058;-72
2022/07/17 05:40:01;;;;;;;7.87;4.05;;;;;;;30.32;59.31;100753.63;1759252;80;21480;-72
2022/07/17 05:42:28;;;;;;;3.60;3.30;;;;;;;30.93;59.37;100758.38;1767422;80;21027;-72
2022/07/17 05:44:55;;;;;;;4.40;3.27;;;;;;;30.61;59.42;100773.06;1774564;80;21067;-72
2022/07/17 05:47:24;;;;;;;4.22;3.30;;;;;;;30.29;59.94;100782.70;1780927;80;21035;-72
2022/07/17 05:49:51;;;;;;;4.37;3.27;;;;;;;30.10;59.29;100776.17;1760954;80;21075;-71
2022/07/17 05:52:18;;;;;;;4.35;3.40;;;;;;;30.02;57.24;100776.81;1777817;80;21031;-71
2022/07/17 05:54:46;;;;;;;6.83;3.50;;;;;;;30.01;57.92;100774.67;1771101;80;21538;-72
2022/07/17 05:57:14;;;;;;;4.75;3.22;;;;;;;30.23;57.45;100758.23;1761236;80;21498;-72
2022/07/17 05:59:41;;;;;;;3.92;3.40;;;;;;;30.37;56.50;100755.19;1758985;80;21042;-72
2022/07/17 06:02:08;;;;;;;3.83;3.33;;;;;;;30.51;57.24;100760.11;1758462;80;21055;-72
2022/07/17 06:04:35;;;;;;;5.90;3.10;;;;;;;30.50;55.84;100765.94;1749484;80;21031;-71
2022/07/17 06:07:05;;;;;;;3.95;3.42;;;;;;;30.61;56.58;100773.06;1758354;80;21020;-71
2022/07/17 06:09:33;;;;;;;3.62;3.33;;;;;;;30.48;57.70;100776.45;1765194;80;21078;-74
2022/07/17 06:12:00;;;;;;;4.25;3.33;;;;;;;30.53;56.90;100775.34;1773784;80;21035;-73
2022/07/17 06:14:27;;;;;;;5.30;3.33;;;;;;;31.42;55.37;100777.34;1757547;80;21059;-74
2022/07/17 06:16:56;;;;;;;3.65;3.30;;;;;;;31.63;54.24;100779.10;1766877;80;21622;-74
2022/07/17 06:19:23;;;;;;;7.12;3.10;;;;;;;30.82;56.17;100779.66;1753274;80;21463;-73
2022/07/17 06:21:52;;;;;;;4.20;3.35;;;;;;;30.69;53.98;100779.05;1760541;80;21043;-74
2022/07/17 06:24:19;;;;;;;3.90;3.50;;;;;;;30.93;54.77;100780.47;1751732;80;21019;-73
2022/07/17 06:26:49;;;;;;;4.87;3.17;;;;;;;31.25;54.63;100778.71;1768117;80;21087;-73
2022/07/17 06:29:16;;;;;;;3.72;3.00;;;;;;;31.46;52.41;100783.12;1770524;80;21034;-73
2022/07/17 06:31:43;;;;;;;5.97;2.92;;;;;;;31.79;52.03;100789.87;1763697;80;21038;-73
2022/07/17 06:34:11;;;;;;;4.03;3.10;;;;;;;31.88;53.10;100796.66;1763636;80;21055;-73
2022/07/17 06:36:38;;;;;;;4.05;3.10;;;;;;;32.07;53.46;100800.41;1728822;82;21004;-73
2022/07/17 06:39:13;;;;;;;4.37;2.90;;;;;;;32.33;54.11;100794.30;1697835;83;21036;-74
2022/07/17 06:41:53;;;;;;;4.67;3.25;;;;;;;32.58;52.24;100786.23;1750907;80;21015;-73
2022/07/17 06:44:20;;;;;;;7.15;2.90;;;;;;;32.79;51.18;100786.02;1744693;81;21031;-73
2022/07/17 06:46:50;;;;;;;4.40;2.80;;;;;;;32.79;52.30;100786.02;1742152;81;21531;-73
2022/07/17 06:49:17;;;;;;;2.80;2.60;;;;;;;33.22;51.95;100782.85;1764866;80;21114;-74
2022/07/17 06:51:47;;;;;;;3.12;2.70;;;;;;;33.69;50.62;100791.50;1764759;80;21095;-73
2022/07/17 06:54:16;;;;;;;3.52;2.92;;;;;;;33.58;48.93;100804.17;1761918;80;21013;-73
2022/07/17 06:56:44;;;;;;;4.25;2.70;;;;;;;33.42;50.19;100816.66;1761405;80;21027;-73
2022/07/17 06:59:12;;;;;;;3.62;3.00;;;;;;;33.45;49.62;100815.70;1768198;81;21040;-74
2022/07/17 07:01:40;;;;;;;5.62;3.20;;;;;;;33.54;49.21;100822.97;1761890;80;21071;-74
2022/07/17 07:04:08;;;;;;;3.30;2.87;;;;;;;33.68;48.36;100822.41;1748891;80;21054;-71
2022/07/17 07:06:35;;;;;;;5.80;3.17;;;;;;;33.44;50.53;100826.09;1760846;80;21086;-73
2022/07/17 07:09:03;;;;;;;3.52;2.90;;;;;;;33.11;49.83;100825.67;1767895;80;21575;-73
2022/07/17 07:11:30;;;;;;;3.50;2.90;;;;;;;32.56;51.18;100829.08;1774955;80;21138;-73
2022/07/17 07:13:58;;;;;;;4.95;3.22;;;;;;;32.34;50.51;100823.08;1759571;80;21141;-73
2022/07/17 07:16:25;;;;;;;4.10;2.77;;;;;;;32.21;50.45;100817.76;1762519;80;21118;-73
2022/07/17 07:18:52;;;;;;;4.90;2.80;;;;;;;32.15;50.11;100803.41;1753823;80;21105;-74
2022/07/17 07:21:22;;;;;;;3.10;2.70;;;;;;;31.96;49.61;100798.33;1764067;80;21090;-73
2022/07/17 07:23:50;;;;;;;4.75;2.90;;;;;;;32.94;48.14;100799.10;1763180;80;21040;-73
2022/07/17 07:26:17;;;;;;;3.25;2.95;;;;;;;33.10;47.72;100793.34;1756366;80;21071;-73
2022/07/17 07:28:44;;;;;;;3.22;2.92;;;;;;;33.24;46.74;100800.80;1765659;80;21153;-74
2022/07/17 07:31:12;;;;;;;6.53;3.00;;;;;;;33.52;46.91;100800.48;1754493;80;21082;-73
2022/07/17 07:33:39;;;;;;;4.72;2.50;;;;;;;33.81;46.68;100794.83;1771282;80;21102;-74
2022/07/17 07:36:06;;;;;;;5.37;2.90;;;;;;;33.75;46.02;100799.70;1761041;80;21528;-72
2022/07/17 07:38:34;;;;;;;2.90;2.60;;;;;;;34.00;45.79;100799.22;1731217;81;21039;-74
2022/07/17 07:41:01;;;;;;;3.90;2.83;;;;;;;34.32;45.16;100803.23;1754356;81;21538;-75
2022/07/17 07:43:28;;;;;;;5.22;2.60;;;;;;;33.97;45.12;100806.34;1755244;80;22148;-75
2022/07/17 07:45:55;;;;;;;4.55;2.80;;;;;;;34.48;44.89;100805.36;1755978;80;20999;-73
2022/07/17 07:48:22;;;;;;;3.12;2.58;;;;;;;34.71;44.82;100807.97;1748319;80;21075;-74
2022/07/17 07:50:50;;;;;;;5.28;2.92;;;;;;;34.70;44.13;100805.01;1749684;80;21011;-75
2022/07/17 07:53:17;;;;;;;3.17;2.62;;;;;;;34.71;43.71;100805.30;1739551;80;21451;-75
2022/07/17 07:55:45;;;;;;;10.65;5.72;;;;;;;33.95;44.45;100809.74;1750739;80;21580;-77
2022/07/17 07:58:13;;;;;;;15.48;6.72;;;;;;;33.04;48.64;100814.16;1746229;80;21054;-76
2022/07/17 08:00:44;;;;;;;9.85;6.75;;;;;;;32.62;49.88;100827.44;1753644;80;21478;-76
2022/07/17 08:03:13;;;;;;;13.58;8.08;;;;;;;32.43;50.85;100827.20;1744185;81;21023;-75
2022/07/17 08:05:42;;;;;;;11.35;7.70;;;;;;;32.27;52.36;100836.41;1747040;82;21055;-76
2022/07/17 08:08:09;;;;;;;11.80;7.80;;;;;;;31.96;53.24;100842.27;1748582;80;20968;-76
2022/07/17 08:10:36;;;;;;;13.08;9.00;;;;;;;31.69;53.43;100843.51;1744459;80;21043;-75
2022/07/17 08:13:03;;;;;;;17.37;9.28;;;;;;;31.80;53.99;100847.43;1751444;80;20954;-77
2022/07/17 08:15:32;;;;;;;13.80;8.63;;;;;;;31.67;54.64;100843.37;1752789;80;21023;-77
2022/07/17 08:17:59;;;;;;;12.93;8.58;;;;;;;30.55;56.51;100840.55;1749385;80;21033;-77
2022/07/17 08:20:28;;;;;;;14.47;10.30;;;;;;;30.50;57.32;100822.23;1746349;80;21103;-75
2022/07/17 08:22:55;;;;;;;16.85;10.95;;;;;;;30.77;57.56;100819.27;1739304;81;21079;-75
2022/07/17 08:25:23;;;;;;;13.68;10.53;;;;;;;30.36;57.92;100831.91;1754825;80;20988;-74
2022/07/17 08:27:51;;;;;;;14.47;10.88;;;;;;;30.38;57.71;100826.42;1746040;81;21452;-75
2022/07/17 08:30:19;;;;;;;17.42;10.60;;;;;;;31.05;57.50;100827.80;1753504;80;21060;-75
2022/07/17 08:32:46;;;;;;;15.00;10.85;;;;;;;31.05;57.79;100834.44;1748791;81;20960;-75
2022/07/17 08:35:13;;;;;;;17.95;11.10;;;;;;;30.88;57.21;100828.58;1753325;80;21571;-78
2022/07/17 08:37:50;;;;;;;20.75;10.82;;;;;;;30.62;57.99;100825.17;1759752;80;20976;-75
2022/07/17 08:40:28;;;;;;;16.20;10.53;;;;;;;30.76;57.77;100826.95;1744959;80;21003;-76
2022/07/17 08:42:57;;;;;;;18.32;10.45;;;;;;;30.91;58.03;100829.53;1753277;81;21044;-76
2022/07/17 08:45:26;;;;;;;15.10;9.73;;;;;;;31.36;57.46;100823.35;1746871;80;21087;-77
2022/07/17 08:47:55;;;;;;;16.20;9.80;;;;;;;30.33;58.85;100817.19;1750179;80;21114;-75
2022/07/17 08:50:30;;;;;;;14.28;9.00;;;;;;;31.18;58.11;100809.23;1747258;80;21500;-75
2022/07/17 08:52:57;;;;;;;14.65;9.50;;;;;;;31.47;56.93;100810.86;1751838;80;21054;-76
2022/07/17 08:55:25;;;;;;;18.00;10.05;;;;;;;31.06;58.51;100816.13;1757486;80;20988;-75
2022/07/17 08:57:52;;;;;;;17.77;10.53;;;;;;;30.90;58.97;100815.91;1750294;80;21590;-76
2022/07/17 09:00:23;;;;;;;20.55;10.90;;;;;;;30.58;58.33;100837.20;1757967;80;20960;-76
2022/07/17 09:03:03;;;;;;;16.42;10.75;;;;;;;30.88;58.37;100832.08;1754078;81;21475;-75
2022/07/17 09:05:37;;;;;;;17.10;11.33;;;;;;;31.06;57.37;100831.56;1754929;80;21527;-75
2022/07/17 09:08:07;;;;;;;17.52;10.95;;;;;;;31.58;56.07;100839.26;1753509;80;20992;-73
2022/07/17 09:10:41;;;;;;;15.28;9.98;;;;;;;30.19;57.24;100839.77;1743792;80;21000;-75
2022/07/17 09:13:28;;;;;;;12.95;10.15;;;;;;;29.84;57.26;100845.72;1745431;80;21007;-74
2022/07/17 09:16:00;;;;;;;13.70;9.20;;;;;;;29.05;58.15;100853.36;1744940;80;21042;-76
2022/07/17 09:18:28;;;;;;;14.03;7.67;;;;;;;29.77;58.20;100844.02;1752320;80;21040;-75
2022/07/17 09:20:58;;;;;;;12.47;6.10;;;;;;;30.58;57.81;100859.78;1758397;80;21088;-75
2022/07/17 09:23:27;;;;;;;7.28;5.70;;;;;;;30.16;58.43;100861.70;1750297;80;21043;-72
2022/07/17 09:25:56;;;;;;;7.97;5.03;;;;;;;29.11;59.86;100877.34;1752541;81;20979;-73
2022/07/17 09:28:24;;;;;;;6.10;4.87;;;;;;;29.32;60.22;100869.18;1731840;80;21062;-74
2022/07/17 09:30:55;;;;;;;7.62;4.83;;;;;;;29.31;59.38;100868.36;1749356;82;21121;-74
2022/07/17 09:33:27;;;;;;;11.03;5.08;;;;;;;28.91;59.53;100862.92;1717183;80;21082;-74
2022/07/17 09:35:58;;;;;;;8.93;5.10;;;;;;;29.46;58.69;100856.94;1729854;80;21043;-74
2022/07/17 09:38:35;;;;;;;8.33;4.55;;;;;;;29.55;58.79;100859.83;1714774;80;21570;-74
2022/07/17 09:41:11;;;;;;;8.33;4.53;;;;;;;29.70;59.16;100860.62;1715714;80;21478;-74
2022/07/17 09:43:57;;;;;;;11.22;4.62;;;;;;;29.90;58.45;100862.73;1732562;80;21007;-74
2022/07/17 09:46:28;;;;;;;6.42;4.28;;;;;;;29.69;58.38;100863.48;1742871;80;21550;-75
2022/07/17 09:49:01;;;;;;;8.18;5.33;;;;;;;29.19;59.07;100869.81;1716965;81;21035;-75
2022/07/17 09:51:36;;;;;;;11.40;8.50;;;;;;;29.29;59.37;100865.07;1718129;81;21187;-74
2022/07/17 09:54:07;;;;;;;10.95;4.35;;;;;;;29.01;58.60;100867.98;1736206;82;21039;-74
2022/07/17 09:56:37;;;;;;;7.05;4.15;;;;;;;28.28;58.49;100874.13;1731355;82;21063;-74
2022/07/17 09:59:08;;;;;;;5.22;4.20;;;;;;;28.55;57.67;100880.28;1727499;80;21075;-74
2022/07/17 10:01:38;;;;;;;5.08;3.90;;;;;;;27.98;57.63;100881.89;1717163;81;20995;-73
2022/07/17 10:04:06;;;;;;;6.10;4.42;;;;;;;27.35;58.58;100874.30;1725307;81;21448;-74
2022/07/17 10:06:33;;;;;;;10.28;4.67;;;;;;;27.41;58.76;100879.42;1749522;80;21188;-74
2022/07/17 10:09:02;;;;;;;7.40;4.25;;;;;;;27.66;58.55;100878.37;1712943;80;21646;-74
2022/07/17 10:11:35;;;;;;;9.60;4.67;;;;;;;27.54;58.84;100877.09;1749698;80;21035;-75
2022/07/17 10:14:07;;;;;;;6.45;5.80;;;;;;;27.54;58.84;100877.09;1736549;81;21511;-74
2022/07/17 10:16:38;;;;;;;13.08;6.45;;;;;;;28.14;57.86;100866.43;1726008;80;21019;-75
2022/07/17 10:19:24;;;;;;;20.68;14.95;;;;;;;27.99;57.88;100872.97;1729834;80;21073;-73
2022/07/17 10:22:00;;;;;;;7.95;4.80;;;;;;;27.99;57.88;100872.97;1719326;81;21027;-74
2022/07/17 10:24:29;;;;;;;6.80;3.77;;;;;;;28.80;56.85;100872.14;1713181;82;21519;-74
2022/07/17 10:26:57;;;;;;;5.05;4.00;;;;;;;28.95;55.84;100849.16;1743812;81;21118;-74
2022/07/17 10:29:38;;;;;;;7.95;4.62;;;;;;;29.10;56.23;100847.03;1725621;80;21487;-74
2022/07/17 10:32:15;;;;;;;12.13;5.28;;;;;;;29.19;55.89;100853.91;1712869;81;21039;-73
2022/07/17 10:34:54;;;;;;;7.62;4.80;;;;;;;29.02;56.20;100855.06;1723331;81;21031;-74
2022/07/17 10:37:25;;;;;;;7.40;4.85;;;;;;;29.39;54.88;100866.13;1736835;80;21329;-74
2022/07/17 10:40:16;;;;;;;5.97;4.58;;;;;;;29.92;53.55;100856.73;1727008;81;21122;-74
2022/07/17 10:43:04;;;;;;;9.68;5.30;;;;;;;30.06;53.77;100851.89;1728671;81;21087;-74
2022/07/17 10:45:42;;;;;;;11.65;6.33;;;;;;;29.72;54.50;100844.04;1723123;82;21539;-75
2022/07/17 10:48:14;;;;;;;10.82;6.95;;;;;;;29.19;55.15;100853.09;1732092;81;21091;-75
2022/07/17 10:50:46;;;;;;;12.00;6.70;;;;;;;28.89;55.72;100869.75;1746583;80;21031;-75
2022/07/17 10:53:32;;;;;;;9.98;6.33;;;;;;;28.55;55.87;100884.76;1729434;82;21070;-75
2022/07/17 10:56:06;;;;;;;9.70;6.75;;;;;;;28.76;56.46;100894.69;1732984;80;21603;-74
2022/07/17 10:58:42;;;;;;;10.35;6.17;;;;;;;29.16;55.28;100906.80;1725705;80;21098;-75
2022/07/17 11:01:16;;;;;;;6.78;5.08;;;;;;;28.96;55.69;100911.74;1718565;82;21027;-74
2022/07/17 11:03:48;;;;;;;6.40;4.83;;;;;;;28.79;56.68;100918.16;1722217;80;21515;-74
2022/07/17 11:06:25;;;;;;;7.15;4.20;;;;;;;28.79;56.68;100918.16;1741220;82;21020;-74
2022/07/17 11:09:08;;;;;;;5.08;3.92;;;;;;;28.56;57.12;100929.58;1727687;80;21042;-74
2022/07/17 11:11:44;;;;;;;8.58;4.03;;;;;;;29.08;57.76;100924.59;1691390;83;21055;-74
2022/07/17 11:14:20;;;;;;;7.45;5.15;;;;;;;28.78;59.65;100925.80;1714005;83;20983;-75
2022/07/17 11:16:59;;;;;;;9.05;4.40;;;;;;;28.22;62.58;100923.30;1719712;81;21047;-75
2022/07/17 11:19:34;;;;;;;9.38;4.12;;;;;;;28.33;61.35;100912.83;1719626;80;21104;-74
2022/07/17 11:22:09;;;;;;;5.17;3.90;;;;;;;28.45;63.87;100901.35;1711671;81;21139;-75
2022/07/17 11:24:41;;;;;;;9.20;4.42;;;;;;;28.50;63.06;100892.39;1731974;80;21090;-74
2022/07/17 11:27:21;;;;;;;9.23;4.67;;;;;;;28.32;63.95;100872.78;1730099;82;21063;-73
2022/07/17 11:29:51;;;;;;;6.65;4.25;;;;;;;28.56;66.01;100868.67;1710209;83;21666;-74